sensor_id;sensor_type;location;lat;lon;timestamp;pressure;altitude;pressure_sealevel;temperature;humidity
15050;BME280;7622;42.724;23.250;2023-05-20T00:00:47;94953.81;;;12.38;100.00
15050;BME280;7622;42.724;23.250;2023-05-20T00:03:15;94943.53;;;12.18;100.00
15050;BME280;7622;42.724;23.250;2023-05-20T00:05:42;94948.78;;;12.36;100.00
15050;BME280;7622;42.724;23.250;2023-05-20T00:08:09;94939.84;;;12.39;100.00
15050;BME280;7622;42.724;23.250;2023-05-20T00:10:35;94933.19;;;12.27;100.00
15050;BME280;7622;42.724;23.250;2023-05-20T00:13:02;94943.13;;;12.41;100.00
15050;BME280;7622;42.724;23.250;2023-05-20T00:15:31;94921.22;;;12.34;100.00
15050;BME280;7622;42.724;23.250;2023-05-20T00:17:59;94932.41;;;12.44;100.00
15050;BME280;7622;42.724;23.250;2023-05-20T00:20:26;94931.00;;;12.49;100.00
15050;BME280;7622;42.724;23.250;2023-05-20T00:22:53;94930.19;;;12.49;100.00
15050;BME280;7622;42.724;23.250;2023-05-20T00:25:19;94917.06;;;12.41;100.00
15050;BME280;7622;42.724;23.250;2023-05-20T00:27:46;94920.25;;;12.52;100.00
15050;BME280;7622;42.724;23.250;2023-05-20T00:30:13;94916.78;;;12.61;100.00
15050;BME280;7622;42.724;23.250;2023-05-20T00:32:41;94920.19;;;12.62;100.00
15050;BME280;7622;42.724;23.250;2023-05-20T00:35:08;94913.72;;;12.66;100.00
15050;BME280;7622;42.724;23.250;2023-05-20T00:37:35;94893.38;;;12.52;100.00
15050;BME280;7622;42.724;23.250;2023-05-20T00:40:02;94912.25;;;12.63;100.00
15050;BME280;7622;42.724;23.250;2023-05-20T00:42:30;94908.94;;;12.61;100.00
15050;BME280;7622;42.724;23.250;2023-05-20T00:44:56;94913.06;;;12.64;100.00
15050;BME280;7622;42.724;23.250;2023-05-20T00:47:26;94911.03;;;12.76;100.00
15050;BME280;7622;42.724;23.250;2023-05-20T00:49:55;94908.06;;;12.71;100.00
15050;BME280;7622;42.724;23.250;2023-05-20T00:52:23;94908.81;;;12.63;100.00
15050;BME280;7622;42.724;23.250;2023-05-20T00:54:51;94912.53;;;12.60;100.00
15050;BME280;7622;42.724;23.250;2023-05-20T00:57:18;94895.63;;;12.47;100.00
15050;BME280;7622;42.724;23.250;2023-05-20T00:59:46;94897.88;;;12.42;100.00
15050;BME280;7622;42.724;23.250;2023-05-20T01:02:13;94907.75;;;12.38;100.00
15050;BME280;7622;42.724;23.250;2023-05-20T01:04:40;94908.78;;;12.28;100.00
15050;BME280;7622;42.724;23.250;2023-05-20T01:07:13;94901.25;;;12.07;100.00
15050;BME280;7622;42.724;23.250;2023-05-20T01:09:40;94869.69;;;11.92;100.00
15050;BME280;7622;42.724;23.250;2023-05-20T01:12:12;94887.78;;;12.11;100.00
15050;BME280;7622;42.724;23.250;2023-05-20T01:14:47;94883.22;;;12.23;100.00
15050;BME280;7622;42.724;23.250;2023-05-20T01:17:15;94911.13;;;12.31;100.00
15050;BME280;7622;42.724;23.250;2023-05-20T01:19:43;94900.75;;;12.39;100.00
15050;BME280;7622;42.724;23.250;2023-05-20T01:22:13;94904.25;;;12.30;100.00
15050;BME280;7622;42.724;23.250;2023-05-20T01:24:43;94906.88;;;12.30;100.00
15050;BME280;7622;42.724;23.250;2023-05-20T01:27:10;94912.00;;;12.21;100.00
15050;BME280;7622;42.724;23.250;2023-05-20T01:29:38;94909.47;;;12.30;100.00
15050;BME280;7622;42.724;23.250;2023-05-20T01:32:07;94904.59;;;12.17;100.00
15050;BME280;7622;42.724;23.250;2023-05-20T01:34:37;94901.84;;;12.18;100.00
15050;BME280;7622;42.724;23.250;2023-05-20T01:37:05;94905.13;;;12.20;100.00
15050;BME280;7622;42.724;23.250;2023-05-20T01:39:35;94894.44;;;12.23;100.00
15050;BME280;7622;42.724;23.250;2023-05-20T01:42:06;94898.38;;;12.10;100.00
15050;BME280;7622;42.724;23.250;2023-05-20T01:44:34;94902.91;;;12.26;100.00
15050;BME280;7622;42.724;23.250;2023-05-20T01:47:00;94912.38;;;12.27;100.00
15050;BME280;7622;42.724;23.250;2023-05-20T01:49:27;94905.41;;;12.17;100.00
15050;BME280;7622;42.724;23.250;2023-05-20T01:51:54;94893.97;;;12.46;100.00
15050;BME280;7622;42.724;23.250;2023-05-20T01:54:21;94892.06;;;12.48;100.00
15050;BME280;7622;42.724;23.250;2023-05-20T01:56:48;94894.94;;;12.45;100.00
15050;BME280;7622;42.724;23.250;2023-05-20T01:59:17;94902.31;;;12.32;100.00
15050;BME280;7622;42.724;23.250;2023-05-20T02:01:44;94899.09;;;12.20;100.00
15050;BME280;7622;42.724;23.250;2023-05-20T02:04:11;94896.50;;;12.02;100.00
15050;BME280;7622;42.724;23.250;2023-05-20T02:06:38;94894.63;;;12.12;100.00
15050;BME280;7622;42.724;23.250;2023-05-20T02:09:04;94844.25;;;11.86;100.00
15050;BME280;7622;42.724;23.250;2023-05-20T02:11:31;94887.06;;;12.19;100.00
15050;BME280;7622;42.724;23.250;2023-05-20T02:13:58;94876.03;;;12.25;100.00
15050;BME280;7622;42.724;23.250;2023-05-20T02:16:26;94861.38;;;12.06;100.00
15050;BME280;7622;42.724;23.250;2023-05-20T02:18:53;94891.75;;;12.33;100.00
15050;BME280;7622;42.724;23.250;2023-05-20T02:21:20;94893.03;;;12.29;100.00
15050;BME280;7622;42.724;23.250;2023-05-20T02:23:47;94886.53;;;12.33;100.00
15050;BME280;7622;42.724;23.250;2023-05-20T02:26:13;94879.25;;;12.37;100.00
15050;BME280;7622;42.724;23.250;2023-05-20T02:28:40;94875.16;;;12.34;100.00
15050;BME280;7622;42.724;23.250;2023-05-20T02:31:11;94881.94;;;12.09;100.00
15050;BME280;7622;42.724;23.250;2023-05-20T02:33:39;94881.94;;;12.09;100.00
15050;BME280;7622;42.724;23.250;2023-05-20T02:36:06;94884.34;;;11.93;100.00
15050;BME280;7622;42.724;23.250;2023-05-20T02:38:33;94873.94;;;11.93;100.00
15050;BME280;7622;42.724;23.250;2023-05-20T02:41:00;94876.53;;;11.93;100.00
15050;BME280;7622;42.724;23.250;2023-05-20T02:43:28;94880.97;;;11.83;100.00
15050;BME280;7622;42.724;23.250;2023-05-20T02:45:55;94882.34;;;11.87;100.00
15050;BME280;7622;42.724;23.250;2023-05-20T02:48:22;94882.38;;;11.77;100.00
15050;BME280;7622;42.724;23.250;2023-05-20T02:50:50;94876.81;;;11.90;100.00
15050;BME280;7622;42.724;23.250;2023-05-20T02:53:17;94879.22;;;12.01;100.00
15050;BME280;7622;42.724;23.250;2023-05-20T02:55:45;94880.56;;;12.05;100.00
15050;BME280;7622;42.724;23.250;2023-05-20T02:58:13;94884.22;;;11.95;100.00
15050;BME280;7622;42.724;23.250;2023-05-20T03:00:40;94895.50;;;12.03;100.00
15050;BME280;7622;42.724;23.250;2023-05-20T03:03:07;94890.28;;;12.03;100.00
15050;BME280;7622;42.724;23.250;2023-05-20T03:05:34;94885.78;;;12.05;100.00
15050;BME280;7622;42.724;23.250;2023-05-20T03:08:06;94902.81;;;12.00;100.00
15050;BME280;7622;42.724;23.250;2023-05-20T03:10:35;94902.69;;;12.19;100.00
15050;BME280;7622;42.724;23.250;2023-05-20T03:13:03;94893.75;;;12.39;100.00
15050;BME280;7622;42.724;23.250;2023-05-20T03:15:32;94900.69;;;12.66;100.00
15050;BME280;7622;42.724;23.250;2023-05-20T03:17:59;94904.03;;;12.58;100.00
15050;BME280;7622;42.724;23.250;2023-05-20T03:20:26;94908.44;;;12.58;100.00
15050;BME280;7622;42.724;23.250;2023-05-20T03:22:54;94912.59;;;12.69;100.00
15050;BME280;7622;42.724;23.250;2023-05-20T03:25:23;94904.38;;;12.81;100.00
15050;BME280;7622;42.724;23.250;2023-05-20T03:27:50;94904.88;;;13.20;100.00
15050;BME280;7622;42.724;23.250;2023-05-20T03:30:17;94905.91;;;13.27;100.00
15050;BME280;7622;42.724;23.250;2023-05-20T03:32:44;94906.13;;;13.34;100.00
15050;BME280;7622;42.724;23.250;2023-05-20T03:35:10;94911.09;;;13.53;100.00
15050;BME280;7622;42.724;23.250;2023-05-20T03:37:37;94912.16;;;13.43;100.00
15050;BME280;7622;42.724;23.250;2023-05-20T03:40:05;94922.13;;;13.39;100.00
15050;BME280;7622;42.724;23.250;2023-05-20T03:42:36;94920.59;;;13.62;100.00
15050;BME280;7622;42.724;23.250;2023-05-20T03:45:03;94912.31;;;13.67;100.00
15050;BME280;7622;42.724;23.250;2023-05-20T03:47:30;94922.97;;;14.15;100.00
15050;BME280;7622;42.724;23.250;2023-05-20T03:49:57;94920.13;;;14.01;100.00
15050;BME280;7622;42.724;23.250;2023-05-20T03:52:23;94923.53;;;13.93;100.00
15050;BME280;7622;42.724;23.250;2023-05-20T03:54:50;94904.94;;;14.04;100.00
15050;BME280;7622;42.724;23.250;2023-05-20T03:57:17;94927.50;;;14.55;100.00
15050;BME280;7622;42.724;23.250;2023-05-20T03:59:46;94935.47;;;14.54;100.00
15050;BME280;7622;42.724;23.250;2023-05-20T04:02:13;94938.91;;;14.54;100.00
15050;BME280;7622;42.724;23.250;2023-05-20T04:04:40;94932.94;;;14.28;100.00
15050;BME280;7622;42.724;23.250;2023-05-20T04:07:07;94944.72;;;14.32;100.00
15050;BME280;7622;42.724;23.250;2023-05-20T04:09:34;94946.47;;;14.66;100.00
15050;BME280;7622;42.724;23.250;2023-05-20T04:12:01;94953.00;;;14.70;100.00
15050;BME280;7622;42.724;23.250;2023-05-20T04:14:28;94951.06;;;14.72;100.00
15050;BME280;7622;42.724;23.250;2023-05-20T04:16:57;94951.53;;;15.08;100.00
15050;BME280;7622;42.724;23.250;2023-05-20T04:19:23;94946.78;;;15.44;100.00
15050;BME280;7622;42.724;23.250;2023-05-20T04:21:52;94945.97;;;15.43;100.00
15050;BME280;7622;42.724;23.250;2023-05-20T04:24:19;94956.19;;;16.01;100.00
15050;BME280;7622;42.724;23.250;2023-05-20T04:26:49;94959.31;;;16.36;100.00
15050;BME280;7622;42.724;23.250;2023-05-20T04:29:16;94949.97;;;16.33;100.00
15050;BME280;7622;42.724;23.250;2023-05-20T04:31:44;94950.97;;;15.85;100.00
15050;BME280;7622;42.724;23.250;2023-05-20T04:34:12;94951.16;;;16.31;100.00
15050;BME280;7622;42.724;23.250;2023-05-20T04:36:43;94947.59;;;16.85;100.00
15050;BME280;7622;42.724;23.250;2023-05-20T04:39:10;94949.91;;;17.26;100.00
15050;BME280;7622;42.724;23.250;2023-05-20T04:41:38;94945.59;;;17.48;100.00
15050;BME280;7622;42.724;23.250;2023-05-20T04:44:04;94957.50;;;17.36;100.00
15050;BME280;7622;42.724;23.250;2023-05-20T04:46:31;94949.31;;;17.53;100.00
15050;BME280;7622;42.724;23.250;2023-05-20T04:48:58;94962.16;;;17.11;100.00
15050;BME280;7622;42.724;23.250;2023-05-20T04:51:26;94965.72;;;17.18;100.00
15050;BME280;7622;42.724;23.250;2023-05-20T04:53:54;94960.84;;;17.15;100.00
15050;BME280;7622;42.724;23.250;2023-05-20T04:56:21;94961.22;;;17.64;100.00
15050;BME280;7622;42.724;23.250;2023-05-20T04:58:48;94968.41;;;18.14;100.00
15050;BME280;7622;42.724;23.250;2023-05-20T05:01:14;94964.69;;;18.38;100.00
15050;BME280;7622;42.724;23.250;2023-05-20T05:03:41;94958.97;;;18.34;100.00
15050;BME280;7622;42.724;23.250;2023-05-20T05:06:08;94959.56;;;18.80;100.00
15050;BME280;7622;42.724;23.250;2023-05-20T05:08:36;94962.25;;;19.51;100.00
15050;BME280;7622;42.724;23.250;2023-05-20T05:11:04;94967.16;;;19.82;100.00
15050;BME280;7622;42.724;23.250;2023-05-20T05:13:31;94963.13;;;19.15;100.00
15050;BME280;7622;42.724;23.250;2023-05-20T05:15:58;94964.31;;;19.34;100.00
15050;BME280;7622;42.724;23.250;2023-05-20T05:18:25;94961.97;;;19.46;100.00
15050;BME280;7622;42.724;23.250;2023-05-20T05:20:58;94963.13;;;19.58;100.00
15050;BME280;7622;42.724;23.250;2023-05-20T05:23:25;94960.44;;;19.79;100.00
15050;BME280;7622;42.724;23.250;2023-05-20T05:25:53;94963.22;;;20.05;98.91
15050;BME280;7622;42.724;23.250;2023-05-20T05:28:20;94958.50;;;20.29;98.09
15050;BME280;7622;42.724;23.250;2023-05-20T05:30:47;94957.31;;;20.72;92.76
15050;BME280;7622;42.724;23.250;2023-05-20T05:33:13;94960.50;;;21.61;86.51
15050;BME280;7622;42.724;23.250;2023-05-20T05:35:40;94952.34;;;22.09;80.57
15050;BME280;7622;42.724;23.250;2023-05-20T05:38:07;94948.47;;;22.12;78.09
15050;BME280;7622;42.724;23.250;2023-05-20T05:40:35;94958.25;;;21.91;78.97
15050;BME280;7622;42.724;23.250;2023-05-20T05:43:03;94955.81;;;22.03;76.87
15050;BME280;7622;42.724;23.250;2023-05-20T05:45:29;94950.91;;;21.87;78.07
15050;BME280;7622;42.724;23.250;2023-05-20T05:47:56;94955.22;;;21.75;80.64
15050;BME280;7622;42.724;23.250;2023-05-20T05:50:23;94963.13;;;22.14;77.73
15050;BME280;7622;42.724;23.250;2023-05-20T05:52:50;94954.47;;;22.52;75.03
15050;BME280;7622;42.724;23.250;2023-05-20T05:55:16;94959.00;;;22.38;74.44
15050;BME280;7622;42.724;23.250;2023-05-20T05:57:43;94953.59;;;21.41;80.18
15050;BME280;7622;42.724;23.250;2023-05-20T06:00:12;94949.28;;;21.86;80.79
15050;BME280;7622;42.724;23.250;2023-05-20T06:02:39;94957.84;;;21.75;80.55
15050;BME280;7622;42.724;23.250;2023-05-20T06:05:07;94948.41;;;22.31;78.62
15050;BME280;7622;42.724;23.250;2023-05-20T06:07:34;94958.81;;;22.33;76.57
15050;BME280;7622;42.724;23.250;2023-05-20T06:10:01;94949.28;;;22.12;75.35
15050;BME280;7622;42.724;23.250;2023-05-20T06:12:28;94954.19;;;21.89;78.68
15050;BME280;7622;42.724;23.250;2023-05-20T06:14:55;94951.16;;;22.05;75.90
15050;BME280;7622;42.724;23.250;2023-05-20T06:17:23;94941.16;;;21.81;78.06
15050;BME280;7622;42.724;23.250;2023-05-20T06:19:49;94942.56;;;22.16;79.58
15050;BME280;7622;42.724;23.250;2023-05-20T06:22:16;94942.16;;;22.70;75.50
15050;BME280;7622;42.724;23.250;2023-05-20T06:24:43;94946.91;;;23.00;72.51
15050;BME280;7622;42.724;23.250;2023-05-20T06:27:10;94940.41;;;22.96;69.53
15050;BME280;7622;42.724;23.250;2023-05-20T06:29:36;94946.31;;;22.98;70.90
15050;BME280;7622;42.724;23.250;2023-05-20T06:32:04;94921.19;;;22.62;72.15
15050;BME280;7622;42.724;23.250;2023-05-20T06:34:32;94931.94;;;23.50;69.34
15050;BME280;7622;42.724;23.250;2023-05-20T06:36:59;94928.44;;;23.74;66.76
15050;BME280;7622;42.724;23.250;2023-05-20T06:39:26;94930.94;;;23.69;65.00
15050;BME280;7622;42.724;23.250;2023-05-20T06:41:53;94922.13;;;23.75;64.55
15050;BME280;7622;42.724;23.250;2023-05-20T06:44:20;94922.44;;;23.61;60.72
15050;BME280;7622;42.724;23.250;2023-05-20T06:46:46;94915.06;;;23.87;60.13
15050;BME280;7622;42.724;23.250;2023-05-20T06:49:13;94916.25;;;23.91;58.25
15050;BME280;7622;42.724;23.250;2023-05-20T06:51:41;94920.53;;;24.11;58.79
15050;BME280;7622;42.724;23.250;2023-05-20T06:54:08;94921.81;;;24.45;58.45
15050;BME280;7622;42.724;23.250;2023-05-20T06:56:35;94924.41;;;24.51;56.76
15050;BME280;7622;42.724;23.250;2023-05-20T06:59:02;94930.06;;;24.55;57.05
15050;BME280;7622;42.724;23.250;2023-05-20T07:01:28;94929.03;;;25.04;55.49
15050;BME280;7622;42.724;23.250;2023-05-20T07:03:55;94929.03;;;25.04;54.41
15050;BME280;7622;42.724;23.250;2023-05-20T07:06:22;94930.75;;;24.32;54.57
15050;BME280;7622;42.724;23.250;2023-05-20T07:08:50;94922.66;;;24.27;53.96
15050;BME280;7622;42.724;23.250;2023-05-20T07:11:17;94903.19;;;24.33;53.11
15050;BME280;7622;42.724;23.250;2023-05-20T07:13:44;94924.09;;;24.41;52.64
15050;BME280;7622;42.724;23.250;2023-05-20T07:16:10;94915.56;;;24.39;53.04
15050;BME280;7622;42.724;23.250;2023-05-20T07:18:37;94923.97;;;24.36;53.02
15050;BME280;7622;42.724;23.250;2023-05-20T07:21:04;94923.16;;;24.36;52.93
15050;BME280;7622;42.724;23.250;2023-05-20T07:23:31;94919.94;;;24.09;52.97
15050;BME280;7622;42.724;23.250;2023-05-20T07:25:59;94915.72;;;24.26;55.47
15050;BME280;7622;42.724;23.250;2023-05-20T07:28:26;94922.47;;;24.58;56.31
15050;BME280;7622;42.724;23.250;2023-05-20T07:30:52;94917.28;;;24.33;52.72
15050;BME280;7622;42.724;23.250;2023-05-20T07:33:21;94912.63;;;24.47;52.73
15050;BME280;7622;42.724;23.250;2023-05-20T07:35:51;94910.19;;;24.76;52.46
15050;BME280;7622;42.724;23.250;2023-05-20T07:38:20;94918.34;;;24.44;51.98
15050;BME280;7622;42.724;23.250;2023-05-20T07:40:46;94913.47;;;24.41;52.34
15050;BME280;7622;42.724;23.250;2023-05-20T07:43:15;94916.38;;;25.18;52.21
15050;BME280;7622;42.724;23.250;2023-05-20T07:45:42;94906.41;;;25.01;53.97
15050;BME280;7622;42.724;23.250;2023-05-20T07:48:08;94908.44;;;24.69;53.16
15050;BME280;7622;42.724;23.250;2023-05-20T07:50:37;94914.44;;;24.28;53.78
15050;BME280;7622;42.724;23.250;2023-05-20T07:53:04;94909.72;;;23.69;54.87
15050;BME280;7622;42.724;23.250;2023-05-20T07:55:33;94902.03;;;23.36;55.71
15050;BME280;7622;42.724;23.250;2023-05-20T07:58:00;94908.59;;;24.02;53.38
15050;BME280;7622;42.724;23.250;2023-05-20T08:00:28;94908.69;;;24.31;52.44
15050;BME280;7622;42.724;23.250;2023-05-20T08:02:55;94911.72;;;24.35;52.64
15050;BME280;7622;42.724;23.250;2023-05-20T08:05:22;94912.78;;;23.91;53.82
15050;BME280;7622;42.724;23.250;2023-05-20T08:07:48;94906.47;;;24.10;52.46
15050;BME280;7622;42.724;23.250;2023-05-20T08:10:15;94910.09;;;24.34;52.21
15050;BME280;7622;42.724;23.250;2023-05-20T08:12:42;94908.25;;;24.34;52.72
15050;BME280;7622;42.724;23.250;2023-05-20T08:15:09;94905.22;;;24.31;53.76
15050;BME280;7622;42.724;23.250;2023-05-20T08:17:37;94895.94;;;24.70;54.61
15050;BME280;7622;42.724;23.250;2023-05-20T08:20:05;94891.78;;;25.34;52.54
15050;BME280;7622;42.724;23.250;2023-05-20T08:22:33;94902.38;;;24.81;52.13
15050;BME280;7622;42.724;23.250;2023-05-20T08:25:01;94902.16;;;24.82;53.08
15050;BME280;7622;42.724;23.250;2023-05-20T08:27:28;94900.53;;;24.63;52.30
15050;BME280;7622;42.724;23.250;2023-05-20T08:29:55;94904.75;;;24.16;55.19
15050;BME280;7622;42.724;23.250;2023-05-20T08:32:22;94899.13;;;23.87;55.93
15050;BME280;7622;42.724;23.250;2023-05-20T08:34:50;94891.19;;;24.42;55.04
15050;BME280;7622;42.724;23.250;2023-05-20T08:37:16;94907.81;;;24.38;55.40
15050;BME280;7622;42.724;23.250;2023-05-20T08:39:43;94897.69;;;23.91;56.13
15050;BME280;7622;42.724;23.250;2023-05-20T08:42:12;94897.34;;;24.91;52.03
15050;BME280;7622;42.724;23.250;2023-05-20T08:44:40;94898.16;;;24.91;52.82
15050;BME280;7622;42.724;23.250;2023-05-20T08:47:07;94896.41;;;24.67;53.78
15050;BME280;7622;42.724;23.250;2023-05-20T08:49:35;94890.88;;;24.68;53.40
15050;BME280;7622;42.724;23.250;2023-05-20T08:52:04;94887.94;;;24.58;54.70
15050;BME280;7622;42.724;23.250;2023-05-20T08:54:42;94894.31;;;24.69;54.41
15050;BME280;7622;42.724;23.250;2023-05-20T08:57:09;94889.63;;;24.83;54.17
15050;BME280;7622;42.724;23.250;2023-05-20T08:59:40;94898.97;;;24.73;53.23
15050;BME280;7622;42.724;23.250;2023-05-20T09:02:08;94893.84;;;24.42;52.85
15050;BME280;7622;42.724;23.250;2023-05-20T09:04:35;94897.78;;;24.69;51.67
15050;BME280;7622;42.724;23.250;2023-05-20T09:07:03;94871.28;;;24.51;52.51
15050;BME280;7622;42.724;23.250;2023-05-20T09:09:32;94890.81;;;24.87;51.30
15050;BME280;7622;42.724;23.250;2023-05-20T09:12:00;94881.66;;;24.83;50.86
15050;BME280;7622;42.724;23.250;2023-05-20T09:14:27;94879.44;;;24.68;50.16
15050;BME280;7622;42.724;23.250;2023-05-20T09:16:54;94873.56;;;24.96;50.19
15050;BME280;7622;42.724;23.250;2023-05-20T09:19:21;94876.88;;;24.91;49.76
15050;BME280;7622;42.724;23.250;2023-05-20T09:21:51;94872.75;;;24.77;50.04
15050;BME280;7622;42.724;23.250;2023-05-20T09:24:22;94855.06;;;25.01;49.81
15050;BME280;7622;42.724;23.250;2023-05-20T09:26:49;94860.22;;;25.37;49.10
15050;BME280;7622;42.724;23.250;2023-05-20T09:29:16;94873.09;;;24.99;50.15
15050;BME280;7622;42.724;23.250;2023-05-20T09:31:44;94849.47;;;25.44;49.15
15050;BME280;7622;42.724;23.250;2023-05-20T09:34:10;94870.00;;;25.02;49.97
15050;BME280;7622;42.724;23.250;2023-05-20T09:36:38;94852.44;;;24.83;49.58
15050;BME280;7622;42.724;23.250;2023-05-20T09:39:07;94849.34;;;25.27;49.23
15050;BME280;7622;42.724;23.250;2023-05-20T09:41:39;94881.91;;;24.51;50.41
15050;BME280;7622;42.724;23.250;2023-05-20T09:44:11;94870.19;;;24.41;50.82
15050;BME280;7622;42.724;23.250;2023-05-20T09:46:41;94867.44;;;25.07;50.11
15050;BME280;7622;42.724;23.250;2023-05-20T09:49:10;94851.81;;;24.99;50.67
15050;BME280;7622;42.724;23.250;2023-05-20T09:51:37;94836.97;;;25.33;48.83
15050;BME280;7622;42.724;23.250;2023-05-20T09:54:06;94851.38;;;25.02;49.16
15050;BME280;7622;42.724;23.250;2023-05-20T09:56:34;94843.44;;;25.25;49.53
15050;BME280;7622;42.724;23.250;2023-05-20T09:59:04;94843.69;;;25.82;48.38
15050;BME280;7622;42.724;23.250;2023-05-20T10:01:31;94851.63;;;26.28;47.42
15050;BME280;7622;42.724;23.250;2023-05-20T10:03:58;94834.09;;;25.81;46.43
15050;BME280;7622;42.724;23.250;2023-05-20T10:06:42;94860.13;;;25.91;47.34
15050;BME280;7622;42.724;23.250;2023-05-20T10:09:31;94841.50;;;24.91;47.41
15050;BME280;7622;42.724;23.250;2023-05-20T10:12:18;94836.25;;;25.26;46.52
15050;BME280;7622;42.724;23.250;2023-05-20T10:14:57;94843.94;;;24.92;46.12
15050;BME280;7622;42.724;23.250;2023-05-20T10:17:34;94826.91;;;24.82;47.64
15050;BME280;7622;42.724;23.250;2023-05-20T10:20:05;94821.56;;;25.00;47.80
15050;BME280;7622;42.724;23.250;2023-05-20T10:22:33;94801.69;;;25.14;48.33
15050;BME280;7622;42.724;23.250;2023-05-20T10:25:06;94811.78;;;25.59;47.51
15050;BME280;7622;42.724;23.250;2023-05-20T10:27:41;94791.06;;;25.37;46.47
15050;BME280;7622;42.724;23.250;2023-05-20T10:30:16;94808.66;;;25.62;47.13
15050;BME280;7622;42.724;23.250;2023-05-20T10:32:50;94808.63;;;25.38;46.81
15050;BME280;7622;42.724;23.250;2023-05-20T10:35:20;94809.34;;;25.57;47.29
15050;BME280;7622;42.724;23.250;2023-05-20T10:37:51;94791.19;;;25.66;47.30
15050;BME280;7622;42.724;23.250;2023-05-20T10:40:21;94791.47;;;26.04;46.22
15050;BME280;7622;42.724;23.250;2023-05-20T10:42:48;94792.53;;;25.80;46.17
15050;BME280;7622;42.724;23.250;2023-05-20T10:45:26;94788.31;;;26.07;46.54
15050;BME280;7622;42.724;23.250;2023-05-20T10:47:56;94776.56;;;24.98;47.44
15050;BME280;7622;42.724;23.250;2023-05-20T10:50:27;94785.25;;;25.17;46.79
15050;BME280;7622;42.724;23.250;2023-05-20T10:53:02;94782.97;;;25.32;47.14
15050;BME280;7622;42.724;23.250;2023-05-20T10:55:35;94769.19;;;24.47;48.24
15050;BME280;7622;42.724;23.250;2023-05-20T10:58:05;94774.22;;;24.37;46.91
15050;BME280;7622;42.724;23.250;2023-05-20T11:00:35;94778.53;;;24.50;47.29
15050;BME280;7622;42.724;23.250;2023-05-20T11:03:03;94763.19;;;24.22;45.87
15050;BME280;7622;42.724;23.250;2023-05-20T11:05:30;94761.56;;;24.62;46.57
15050;BME280;7622;42.724;23.250;2023-05-20T11:08:00;94768.72;;;24.50;47.15
15050;BME280;7622;42.724;23.250;2023-05-20T11:10:31;94748.66;;;24.78;47.46
15050;BME280;7622;42.724;23.250;2023-05-20T11:13:00;94761.88;;;24.43;47.48
15050;BME280;7622;42.724;23.250;2023-05-20T11:15:29;94766.13;;;24.32;46.89
15050;BME280;7622;42.724;23.250;2023-05-20T11:18:04;94759.91;;;24.38;48.02
15050;BME280;7622;42.724;23.250;2023-05-20T11:20:33;94764.84;;;24.16;47.67
15050;BME280;7622;42.724;23.250;2023-05-20T11:23:05;94757.88;;;24.63;47.96
15050;BME280;7622;42.724;23.250;2023-05-20T11:25:32;94759.28;;;24.78;48.12
15050;BME280;7622;42.724;23.250;2023-05-20T11:27:59;94758.53;;;24.89;48.42
15050;BME280;7622;42.724;23.250;2023-05-20T11:30:29;94743.59;;;24.88;48.48
15050;BME280;7622;42.724;23.250;2023-05-20T11:33:03;94742.25;;;24.44;47.45
15050;BME280;7622;42.724;23.250;2023-05-20T11:35:34;94734.84;;;24.16;48.65
15050;BME280;7622;42.724;23.250;2023-05-20T11:38:05;94740.38;;;23.66;49.47
15050;BME280;7622;42.724;23.250;2023-05-20T11:40:33;94737.31;;;23.51;49.80
15050;BME280;7622;42.724;23.250;2023-05-20T11:43:02;94723.25;;;23.26;50.30
15050;BME280;7622;42.724;23.250;2023-05-20T11:45:38;94719.44;;;23.40;50.47
15050;BME280;7622;42.724;23.250;2023-05-20T11:48:07;94718.59;;;23.64;50.17
15050;BME280;7622;42.724;23.250;2023-05-20T11:50:38;94718.13;;;23.85;50.47
15050;BME280;7622;42.724;23.250;2023-05-20T11:53:06;94724.22;;;23.86;50.38
15050;BME280;7622;42.724;23.250;2023-05-20T11:55:33;94719.81;;;23.62;51.35
15050;BME280;7622;42.724;23.250;2023-05-20T11:58:02;94714.09;;;23.65;53.81
15050;BME280;7622;42.724;23.250;2023-05-20T12:00:28;94712.38;;;23.70;53.50
15050;BME280;7622;42.724;23.250;2023-05-20T12:02:55;94703.31;;;23.23;53.21
15050;BME280;7622;42.724;23.250;2023-05-20T12:05:23;94704.09;;;23.05;53.10
15050;BME280;7622;42.724;23.250;2023-05-20T12:07:50;94693.75;;;22.79;55.09
15050;BME280;7622;42.724;23.250;2023-05-20T12:10:19;94698.59;;;22.82;55.49
15050;BME280;7622;42.724;23.250;2023-05-20T12:12:48;94690.69;;;22.75;54.84
15050;BME280;7622;42.724;23.250;2023-05-20T12:15:15;94691.09;;;22.79;56.38
15050;BME280;7622;42.724;23.250;2023-05-20T12:17:45;94694.81;;;22.47;55.88
15050;BME280;7622;42.724;23.250;2023-05-20T12:20:17;94697.81;;;22.50;55.58
15050;BME280;7622;42.724;23.250;2023-05-20T12:22:47;94685.72;;;22.36;54.77
15050;BME280;7622;42.724;23.250;2023-05-20T12:25:16;94693.31;;;21.88;56.42
15050;BME280;7622;42.724;23.250;2023-05-20T12:27:44;94690.50;;;22.21;57.97
15050;BME280;7622;42.724;23.250;2023-05-20T12:30:14;94695.66;;;22.09;54.99
15050;BME280;7622;42.724;23.250;2023-05-20T12:32:41;94701.09;;;21.83;55.81
15050;BME280;7622;42.724;23.250;2023-05-20T12:35:09;94694.09;;;21.95;56.85
15050;BME280;7622;42.724;23.250;2023-05-20T12:37:36;94709.50;;;22.11;57.38
15050;BME280;7622;42.724;23.250;2023-05-20T12:40:06;94702.84;;;22.33;55.92
15050;BME280;7622;42.724;23.250;2023-05-20T12:42:34;94703.69;;;21.96;57.34
15050;BME280;7622;42.724;23.250;2023-05-20T12:45:01;94715.75;;;21.79;57.26
15050;BME280;7622;42.724;23.250;2023-05-20T12:47:28;94716.09;;;21.89;60.94
15050;BME280;7622;42.724;23.250;2023-05-20T12:49:55;94721.38;;;21.38;61.48
15050;BME280;7622;42.724;23.250;2023-05-20T12:52:22;94732.41;;;21.28;62.11
15050;BME280;7622;42.724;23.250;2023-05-20T12:54:48;94734.59;;;21.44;56.92
15050;BME280;7622;42.724;23.250;2023-05-20T12:57:17;94725.22;;;21.55;54.87
15050;BME280;7622;42.724;23.250;2023-05-20T12:59:44;94725.31;;;21.22;55.28